sensor_id;sensor_type;location;lat;lon;timestamp;P1;durP1;ratioP1;P2;durP2;ratioP2
73331;SDS011;61560;33.718;73.040;2023-05-01T00:01:53;22.40;;;9.50;;
73331;SDS011;61560;33.718;73.040;2023-05-01T00:04:20;14.90;;;9.00;;
73331;SDS011;61560;33.718;73.040;2023-05-01T00:06:47;19.67;;;9.30;;
73331;SDS011;61560;33.718;73.040;2023-05-01T00:09:13;18.40;;;9.02;;
73331;SDS011;61560;33.718;73.040;2023-05-01T00:11:40;16.15;;;8.20;;
73331;SDS011;61560;33.718;73.040;2023-05-01T00:14:06;20.17;;;8.75;;
73331;SDS011;61560;33.718;73.040;2023-05-01T00:16:33;20.23;;;8.93;;
73331;SDS011;61560;33.718;73.040;2023-05-01T00:19:01;15.38;;;8.82;;
73331;SDS011;61560;33.718;73.040;2023-05-01T00:21:28;19.80;;;8.77;;
73331;SDS011;61560;33.718;73.040;2023-05-01T00:23:55;17.45;;;8.10;;
73331;SDS011;61560;33.718;73.040;2023-05-01T00:26:22;13.73;;;8.23;;
73331;SDS011;61560;33.718;73.040;2023-05-01T00:28:52;20.92;;;10.02;;
73331;SDS011;61560;33.718;73.040;2023-05-01T00:31:19;18.05;;;10.00;;
73331;SDS011;61560;33.718;73.040;2023-05-01T00:33:47;15.88;;;8.63;;
73331;SDS011;61560;33.718;73.040;2023-05-01T00:36:13;17.48;;;9.45;;
73331;SDS011;61560;33.718;73.040;2023-05-01T00:38:40;18.10;;;8.88;;
73331;SDS011;61560;33.718;73.040;2023-05-01T00:41:06;16.15;;;8.80;;
73331;SDS011;61560;33.718;73.040;2023-05-01T00:43:33;24.75;;;9.68;;
73331;SDS011;61560;33.718;73.040;2023-05-01T00:46:00;21.90;;;9.40;;
73331;SDS011;61560;33.718;73.040;2023-05-01T00:48:29;19.33;;;9.05;;
73331;SDS011;61560;33.718;73.040;2023-05-01T00:50:55;19.42;;;9.20;;
73331;SDS011;61560;33.718;73.040;2023-05-01T00:53:23;23.15;;;11.23;;
73331;SDS011;61560;33.718;73.040;2023-05-01T00:55:51;19.83;;;9.35;;
73331;SDS011;61560;33.718;73.040;2023-05-01T00:58:22;29.23;;;10.57;;
73331;SDS011;61560;33.718;73.040;2023-05-01T01:00:50;25.10;;;10.82;;
73331;SDS011;61560;33.718;73.040;2023-05-01T01:03:18;27.33;;;10.93;;
73331;SDS011;61560;33.718;73.040;2023-05-01T01:05:45;22.88;;;10.95;;
73331;SDS011;61560;33.718;73.040;2023-05-01T01:08:27;29.27;;;10.93;;
73331;SDS011;61560;33.718;73.040;2023-05-01T01:14:19;20.15;;;9.95;;
73331;SDS011;61560;33.718;73.040;2023-05-01T01:22:07;20.48;;;10.32;;
73331;SDS011;61560;33.718;73.040;2023-05-01T01:24:55;24.02;;;10.70;;
73331;SDS011;61560;33.718;73.040;2023-05-01T01:30:34;21.83;;;9.65;;
73331;SDS011;61560;33.718;73.040;2023-05-01T01:36:23;28.10;;;11.73;;
73331;SDS011;61560;33.718;73.040;2023-05-01T01:39:09;25.10;;;11.55;;
73331;SDS011;61560;33.718;73.040;2023-05-01T01:41:37;28.65;;;11.73;;
73331;SDS011;61560;33.718;73.040;2023-05-01T01:44:15;27.88;;;11.23;;
73331;SDS011;61560;33.718;73.040;2023-05-01T01:47:03;22.13;;;11.55;;
73331;SDS011;61560;33.718;73.040;2023-05-01T01:49:33;25.65;;;10.80;;
73331;SDS011;61560;33.718;73.040;2023-05-01T01:52:03;23.45;;;10.88;;
73331;SDS011;61560;33.718;73.040;2023-05-01T01:54:35;23.50;;;10.77;;
73331;SDS011;61560;33.718;73.040;2023-05-01T01:57:06;23.13;;;10.82;;
73331;SDS011;61560;33.718;73.040;2023-05-01T01:59:34;19.83;;;10.32;;
73331;SDS011;61560;33.718;73.040;2023-05-01T02:02:02;24.60;;;10.70;;
73331;SDS011;61560;33.718;73.040;2023-05-01T02:04:30;27.27;;;11.23;;
73331;SDS011;61560;33.718;73.040;2023-05-01T02:06:57;23.95;;;11.50;;
73331;SDS011;61560;33.718;73.040;2023-05-01T02:09:26;26.58;;;11.48;;
73331;SDS011;61560;33.718;73.040;2023-05-01T02:11:57;23.13;;;11.25;;
73331;SDS011;61560;33.718;73.040;2023-05-01T02:14:25;21.90;;;11.25;;
73331;SDS011;61560;33.718;73.040;2023-05-01T02:16:52;22.52;;;11.38;;
73331;SDS011;61560;33.718;73.040;2023-05-01T02:19:24;22.27;;;11.45;;
73331;SDS011;61560;33.718;73.040;2023-05-01T02:21:52;25.95;;;11.38;;
73331;SDS011;61560;33.718;73.040;2023-05-01T02:24:23;23.15;;;11.85;;
73331;SDS011;61560;33.718;73.040;2023-05-01T02:26:52;22.13;;;10.82;;
73331;SDS011;61560;33.718;73.040;2023-05-01T02:29:22;27.10;;;11.93;;
73331;SDS011;61560;33.718;73.040;2023-05-01T02:31:50;21.75;;;11.35;;
73331;SDS011;61560;33.718;73.040;2023-05-01T02:34:17;22.55;;;11.77;;
73331;SDS011;61560;33.718;73.040;2023-05-01T02:36:43;20.30;;;11.73;;
73331;SDS011;61560;33.718;73.040;2023-05-01T02:39:10;19.90;;;11.25;;
73331;SDS011;61560;33.718;73.040;2023-05-01T02:41:37;20.23;;;11.45;;
73331;SDS011;61560;33.718;73.040;2023-05-01T02:44:08;23.17;;;11.77;;
73331;SDS011;61560;33.718;73.040;2023-05-01T02:46:37;17.75;;;11.40;;
73331;SDS011;61560;33.718;73.040;2023-05-01T02:49:08;20.10;;;12.07;;
73331;SDS011;61560;33.718;73.040;2023-05-01T02:51:37;24.17;;;12.13;;
73331;SDS011;61560;33.718;73.040;2023-05-01T02:54:05;17.45;;;10.73;;
73331;SDS011;61560;33.718;73.040;2023-05-01T02:56:33;20.02;;;11.02;;
73331;SDS011;61560;33.718;73.040;2023-05-01T02:59:01;17.23;;;11.80;;
73331;SDS011;61560;33.718;73.040;2023-05-01T03:01:27;21.60;;;12.60;;
73331;SDS011;61560;33.718;73.040;2023-05-01T03:03:54;20.40;;;12.80;;
73331;SDS011;61560;33.718;73.040;2023-05-01T03:06:20;23.02;;;12.15;;
73331;SDS011;61560;33.718;73.040;2023-05-01T03:08:47;24.02;;;12.48;;
73331;SDS011;61560;33.718;73.040;2023-05-01T03:11:13;20.95;;;12.93;;
73331;SDS011;61560;33.718;73.040;2023-05-01T03:13:40;25.10;;;11.27;;
73331;SDS011;61560;33.718;73.040;2023-05-01T03:16:08;17.83;;;11.15;;
73331;SDS011;61560;33.718;73.040;2023-05-01T03:18:34;20.20;;;11.52;;
73331;SDS011;61560;33.718;73.040;2023-05-01T03:21:00;17.75;;;10.95;;
73331;SDS011;61560;33.718;73.040;2023-05-01T03:23:28;22.88;;;11.35;;
73331;SDS011;61560;33.718;73.040;2023-05-01T03:25:55;22.30;;;10.85;;
73331;SDS011;61560;33.718;73.040;2023-05-01T03:28:22;21.70;;;10.98;;
73331;SDS011;61560;33.718;73.040;2023-05-01T03:30:50;19.05;;;10.80;;
73331;SDS011;61560;33.718;73.040;2023-05-01T03:33:18;20.48;;;10.68;;
73331;SDS011;61560;33.718;73.040;2023-05-01T03:35:44;22.55;;;11.43;;
73331;SDS011;61560;33.718;73.040;2023-05-01T03:38:12;21.25;;;10.93;;
73331;SDS011;61560;33.718;73.040;2023-05-01T03:41:08;21.02;;;10.00;;
73331;SDS011;61560;33.718;73.040;2023-05-01T03:43:47;21.08;;;11.13;;
73331;SDS011;61560;33.718;73.040;2023-05-01T03:46:29;22.80;;;11.93;;
73331;SDS011;61560;33.718;73.040;2023-05-01T03:48:57;18.55;;;11.20;;
73331;SDS011;61560;33.718;73.040;2023-05-01T03:51:25;16.75;;;10.60;;
73331;SDS011;61560;33.718;73.040;2023-05-01T03:53:53;18.15;;;10.02;;
73331;SDS011;61560;33.718;73.040;2023-05-01T03:56:25;16.73;;;10.13;;
73331;SDS011;61560;33.718;73.040;2023-05-01T03:58:52;20.65;;;11.07;;
73331;SDS011;61560;33.718;73.040;2023-05-01T04:01:20;22.45;;;11.77;;
73331;SDS011;61560;33.718;73.040;2023-05-01T04:03:47;17.13;;;11.27;;
73331;SDS011;61560;33.718;73.040;2023-05-01T04:06:15;22.90;;;12.02;;
73331;SDS011;61560;33.718;73.040;2023-05-01T04:08:43;21.17;;;11.60;;
73331;SDS011;61560;33.718;73.040;2023-05-01T04:11:10;21.15;;;12.35;;
73331;SDS011;61560;33.718;73.040;2023-05-01T04:13:36;20.65;;;11.20;;
73331;SDS011;61560;33.718;73.040;2023-05-01T04:16:03;23.88;;;11.68;;
73331;SDS011;61560;33.718;73.040;2023-05-01T04:18:30;16.73;;;10.25;;
73331;SDS011;61560;33.718;73.040;2023-05-01T04:20:58;15.85;;;10.30;;
73331;SDS011;61560;33.718;73.040;2023-05-01T04:23:25;14.75;;;10.00;;
73331;SDS011;61560;33.718;73.040;2023-05-01T04:25:56;16.63;;;10.60;;
73331;SDS011;61560;33.718;73.040;2023-05-01T04:28:22;18.23;;;10.25;;
73331;SDS011;61560;33.718;73.040;2023-05-01T04:30:49;17.88;;;9.85;;
73331;SDS011;61560;33.718;73.040;2023-05-01T04:33:15;15.45;;;9.48;;
73331;SDS011;61560;33.718;73.040;2023-05-01T04:35:43;17.77;;;9.93;;
73331;SDS011;61560;33.718;73.040;2023-05-01T04:38:09;13.65;;;9.18;;
73331;SDS011;61560;33.718;73.040;2023-05-01T04:40:37;16.40;;;8.77;;
73331;SDS011;61560;33.718;73.040;2023-05-01T04:43:04;15.38;;;8.65;;
73331;SDS011;61560;33.718;73.040;2023-05-01T04:45:31;18.02;;;9.32;;
73331;SDS011;61560;33.718;73.040;2023-05-01T04:47:58;15.02;;;9.32;;
73331;SDS011;61560;33.718;73.040;2023-05-01T04:50:25;15.30;;;10.00;;
73331;SDS011;61560;33.718;73.040;2023-05-01T04:52:52;16.10;;;8.95;;
73331;SDS011;61560;33.718;73.040;2023-05-01T04:55:20;12.23;;;8.23;;
73331;SDS011;61560;33.718;73.040;2023-05-01T04:58:12;13.60;;;8.95;;
73331;SDS011;61560;33.718;73.040;2023-05-01T05:00:39;15.27;;;7.88;;
73331;SDS011;61560;33.718;73.040;2023-05-01T05:03:09;14.02;;;8.07;;
73331;SDS011;61560;33.718;73.040;2023-05-01T05:05:36;15.23;;;8.32;;
73331;SDS011;61560;33.718;73.040;2023-05-01T05:08:04;12.68;;;7.82;;
73331;SDS011;61560;33.718;73.040;2023-05-01T05:10:36;12.32;;;7.22;;
73331;SDS011;61560;33.718;73.040;2023-05-01T05:13:16;10.82;;;6.90;;
73331;SDS011;61560;33.718;73.040;2023-05-01T05:15:43;12.13;;;7.43;;
73331;SDS011;61560;33.718;73.040;2023-05-01T05:18:11;11.73;;;6.93;;
73331;SDS011;61560;33.718;73.040;2023-05-01T05:20:37;12.85;;;7.03;;
73331;SDS011;61560;33.718;73.040;2023-05-01T05:23:04;11.57;;;6.50;;
73331;SDS011;61560;33.718;73.040;2023-05-01T05:25:31;9.63;;;6.40;;
73331;SDS011;61560;33.718;73.040;2023-05-01T05:27:58;13.77;;;7.97;;
73331;SDS011;61560;33.718;73.040;2023-05-01T05:30:25;13.00;;;7.68;;
73331;SDS011;61560;33.718;73.040;2023-05-01T05:32:52;16.70;;;7.57;;
73331;SDS011;61560;33.718;73.040;2023-05-01T05:35:21;14.85;;;8.18;;
73331;SDS011;61560;33.718;73.040;2023-05-01T05:37:48;17.08;;;7.25;;
73331;SDS011;61560;33.718;73.040;2023-05-01T05:40:15;18.77;;;7.57;;
73331;SDS011;61560;33.718;73.040;2023-05-01T05:42:53;13.65;;;6.80;;
73331;SDS011;61560;33.718;73.040;2023-05-01T05:45:22;13.32;;;7.00;;
73331;SDS011;61560;33.718;73.040;2023-05-01T05:47:49;11.55;;;6.68;;
73331;SDS011;61560;33.718;73.040;2023-05-01T05:50:17;15.23;;;7.30;;
73331;SDS011;61560;33.718;73.040;2023-05-01T05:52:44;20.00;;;7.55;;
73331;SDS011;61560;33.718;73.040;2023-05-01T05:55:14;12.80;;;7.93;;
73331;SDS011;61560;33.718;73.040;2023-05-01T05:57:54;12.43;;;7.45;;
73331;SDS011;61560;33.718;73.040;2023-05-01T06:00:21;14.55;;;7.15;;
73331;SDS011;61560;33.718;73.040;2023-05-01T06:02:49;21.60;;;8.00;;
73331;SDS011;61560;33.718;73.040;2023-05-01T06:05:18;20.10;;;8.30;;
73331;SDS011;61560;33.718;73.040;2023-05-01T06:07:45;23.30;;;9.15;;
73331;SDS011;61560;33.718;73.040;2023-05-01T06:10:11;16.80;;;9.15;;
73331;SDS011;61560;33.718;73.040;2023-05-01T06:12:38;16.08;;;9.73;;
73331;SDS011;61560;33.718;73.040;2023-05-01T06:15:08;19.67;;;10.70;;
73331;SDS011;61560;33.718;73.040;2023-05-01T06:17:41;17.45;;;10.80;;
73331;SDS011;61560;33.718;73.040;2023-05-01T06:20:11;25.53;;;10.03;;
73331;SDS011;61560;33.718;73.040;2023-05-01T06:22:39;16.33;;;9.98;;
73331;SDS011;61560;33.718;73.040;2023-05-01T06:25:14;19.13;;;9.38;;
73331;SDS011;61560;33.718;73.040;2023-05-01T06:27:42;19.25;;;10.38;;
73331;SDS011;61560;33.718;73.040;2023-05-01T06:30:09;22.17;;;11.32;;
73331;SDS011;61560;33.718;73.040;2023-05-01T06:32:40;21.10;;;12.32;;
73331;SDS011;61560;33.718;73.040;2023-05-01T06:35:09;25.45;;;12.35;;
73331;SDS011;61560;33.718;73.040;2023-05-01T06:37:36;20.48;;;12.23;;
73331;SDS011;61560;33.718;73.040;2023-05-01T06:40:06;31.10;;;11.52;;
73331;SDS011;61560;33.718;73.040;2023-05-01T06:42:38;27.27;;;10.75;;
73331;SDS011;61560;33.718;73.040;2023-05-01T06:45:06;24.17;;;11.50;;
73331;SDS011;61560;33.718;73.040;2023-05-01T06:47:33;18.08;;;10.80;;
73331;SDS011;61560;33.718;73.040;2023-05-01T06:50:00;23.33;;;11.23;;
73331;SDS011;61560;33.718;73.040;2023-05-01T06:52:26;17.52;;;10.88;;
73331;SDS011;61560;33.718;73.040;2023-05-01T06:54:53;18.83;;;9.93;;
73331;SDS011;61560;33.718;73.040;2023-05-01T06:57:20;25.02;;;12.20;;
73331;SDS011;61560;33.718;73.040;2023-05-01T06:59:47;24.20;;;12.13;;
73331;SDS011;61560;33.718;73.040;2023-05-01T07:02:13;21.38;;;12.95;;
73331;SDS011;61560;33.718;73.040;2023-05-01T07:04:44;26.00;;;11.70;;
73331;SDS011;61560;33.718;73.040;2023-05-01T07:07:12;26.90;;;12.93;;
73331;SDS011;61560;33.718;73.040;2023-05-01T07:09:39;26.95;;;12.10;;
73331;SDS011;61560;33.718;73.040;2023-05-01T07:12:06;26.35;;;12.43;;
73331;SDS011;61560;33.718;73.040;2023-05-01T07:14:33;19.27;;;11.98;;
73331;SDS011;61560;33.718;73.040;2023-05-01T07:17:03;28.70;;;13.40;;
73331;SDS011;61560;33.718;73.040;2023-05-01T07:19:41;23.83;;;12.13;;
73331;SDS011;61560;33.718;73.040;2023-05-01T07:22:08;37.80;;;15.27;;
73331;SDS011;61560;33.718;73.040;2023-05-01T07:24:34;29.33;;;15.18;;
73331;SDS011;61560;33.718;73.040;2023-05-01T07:27:01;27.92;;;15.15;;
73331;SDS011;61560;33.718;73.040;2023-05-01T07:29:28;25.00;;;12.98;;
73331;SDS011;61560;33.718;73.040;2023-05-01T07:31:55;27.10;;;14.45;;
73331;SDS011;61560;33.718;73.040;2023-05-01T07:34:21;25.75;;;13.43;;
73331;SDS011;61560;33.718;73.040;2023-05-01T07:36:48;25.33;;;13.18;;
73331;SDS011;61560;33.718;73.040;2023-05-01T07:39:14;31.13;;;14.48;;
73331;SDS011;61560;33.718;73.040;2023-05-01T07:41:42;26.17;;;14.25;;
73331;SDS011;61560;33.718;73.040;2023-05-01T07:44:09;29.63;;;15.30;;
73331;SDS011;61560;33.718;73.040;2023-05-01T07:46:36;27.20;;;15.90;;
73331;SDS011;61560;33.718;73.040;2023-05-01T07:49:05;28.50;;;13.80;;
73331;SDS011;61560;33.718;73.040;2023-05-01T07:51:32;25.30;;;12.85;;
73331;SDS011;61560;33.718;73.040;2023-05-01T07:53:59;31.00;;;16.67;;
73331;SDS011;61560;33.718;73.040;2023-05-01T07:56:29;30.88;;;16.27;;
73331;SDS011;61560;33.718;73.040;2023-05-01T07:58:56;30.77;;;15.18;;
73331;SDS011;61560;33.718;73.040;2023-05-01T08:01:22;28.48;;;15.23;;
73331;SDS011;61560;33.718;73.040;2023-05-01T08:03:50;33.80;;;15.38;;
73331;SDS011;61560;33.718;73.040;2023-05-01T08:06:16;30.70;;;14.88;;
73331;SDS011;61560;33.718;73.040;2023-05-01T08:08:43;31.08;;;16.83;;
73331;SDS011;61560;33.718;73.040;2023-05-01T08:11:10;28.88;;;14.68;;
73331;SDS011;61560;33.718;73.040;2023-05-01T08:13:37;31.02;;;15.43;;
73331;SDS011;61560;33.718;73.040;2023-05-01T08:16:04;25.95;;;14.68;;
73331;SDS011;61560;33.718;73.040;2023-05-01T08:18:30;29.85;;;15.88;;
73331;SDS011;61560;33.718;73.040;2023-05-01T08:20:57;30.15;;;14.30;;
73331;SDS011;61560;33.718;73.040;2023-05-01T08:23:24;39.30;;;19.17;;
73331;SDS011;61560;33.718;73.040;2023-05-01T08:25:51;29.65;;;15.30;;
73331;SDS011;61560;33.718;73.040;2023-05-01T08:28:17;32.40;;;15.30;;
73331;SDS011;61560;33.718;73.040;2023-05-01T08:30:47;26.13;;;13.48;;
73331;SDS011;61560;33.718;73.040;2023-05-01T08:33:17;29.63;;;13.82;;
73331;SDS011;61560;33.718;73.040;2023-05-01T08:35:44;27.15;;;13.20;;
73331;SDS011;61560;33.718;73.040;2023-05-01T08:38:10;23.10;;;12.77;;
73331;SDS011;61560;33.718;73.040;2023-05-01T08:40:38;25.02;;;12.10;;
73331;SDS011;61560;33.718;73.040;2023-05-01T08:43:09;23.70;;;13.00;;
73331;SDS011;61560;33.718;73.040;2023-05-01T08:45:37;24.42;;;11.88;;
73331;SDS011;61560;33.718;73.040;2023-05-01T08:48:05;21.17;;;11.98;;
73331;SDS011;61560;33.718;73.040;2023-05-01T08:50:34;21.67;;;12.35;;
73331;SDS011;61560;33.718;73.040;2023-05-01T08:53:03;23.30;;;12.55;;
73331;SDS011;61560;33.718;73.040;2023-05-01T08:55:31;21.73;;;12.48;;
73331;SDS011;61560;33.718;73.040;2023-05-01T08:58:01;22.17;;;12.05;;
73331;SDS011;61560;33.718;73.040;2023-05-01T09:00:31;28.63;;;13.45;;
73331;SDS011;61560;33.718;73.040;2023-05-01T09:03:00;26.15;;;13.60;;
73331;SDS011;61560;33.718;73.040;2023-05-01T09:05:30;23.73;;;11.80;;
73331;SDS011;61560;33.718;73.040;2023-05-01T09:07:57;19.55;;;11.07;;
73331;SDS011;61560;33.718;73.040;2023-05-01T09:10:25;22.10;;;10.27;;
73331;SDS011;61560;33.718;73.040;2023-05-01T09:12:56;19.25;;;10.27;;
73331;SDS011;61560;33.718;73.040;2023-05-01T09:15:26;20.13;;;10.15;;
73331;SDS011;61560;33.718;73.040;2023-05-01T09:17:53;16.50;;;9.45;;
73331;SDS011;61560;33.718;73.040;2023-05-01T09:20:22;15.50;;;8.10;;
73331;SDS011;61560;33.718;73.040;2023-05-01T09:22:50;15.02;;;8.32;;
73331;SDS011;61560;33.718;73.040;2023-05-01T09:25:17;17.35;;;9.23;;
73331;SDS011;61560;33.718;73.040;2023-05-01T09:27:44;15.40;;;9.45;;
73331;SDS011;61560;33.718;73.040;2023-05-01T09:30:28;9.60;;;6.78;;
73331;SDS011;61560;33.718;73.040;2023-05-01T09:35:47;13.70;;;7.38;;
73331;SDS011;61560;33.718;73.040;2023-05-01T09:38:21;17.63;;;7.93;;
73331;SDS011;61560;33.718;73.040;2023-05-01T09:40:49;10.77;;;7.63;;
73331;SDS011;61560;33.718;73.040;2023-05-01T09:43:26;18.00;;;8.55;;
73331;SDS011;61560;33.718;73.040;2023-05-01T09:46:01;17.20;;;8.00;;
73331;SDS011;61560;33.718;73.040;2023-05-01T09:48:32;13.45;;;7.88;;
73331;SDS011;61560;33.718;73.040;2023-05-01T09:50:58;11.63;;;7.03;;
73331;SDS011;61560;33.718;73.040;2023-05-01T09:53:38;14.73;;;8.25;;
73331;SDS011;61560;33.718;73.040;2023-05-01T09:56:06;15.10;;;7.53;;
73331;SDS011;61560;33.718;73.040;2023-05-01T09:58:32;12.65;;;6.95;;
73331;SDS011;61560;33.718;73.040;2023-05-01T10:01:11;14.85;;;6.55;;
73331;SDS011;61560;33.718;73.040;2023-05-01T10:03:53;11.23;;;6.83;;
73331;SDS011;61560;33.718;73.040;2023-05-01T10:06:26;13.07;;;7.72;;
73331;SDS011;61560;33.718;73.040;2023-05-01T10:08:53;12.23;;;7.38;;
73331;SDS011;61560;33.718;73.040;2023-05-01T10:11:21;12.93;;;7.30;;
73331;SDS011;61560;33.718;73.040;2023-05-01T10:14:04;14.60;;;7.20;;
73331;SDS011;61560;33.718;73.040;2023-05-01T10:16:36;12.88;;;6.88;;
73331;SDS011;61560;33.718;73.040;2023-05-01T10:19:08;15.75;;;7.03;;
73331;SDS011;61560;33.718;73.040;2023-05-01T10:21:35;12.88;;;7.85;;
73331;SDS011;61560;33.718;73.040;2023-05-01T10:24:02;11.10;;;7.18;;
73331;SDS011;61560;33.718;73.040;2023-05-01T10:26:31;16.50;;;7.15;;
73331;SDS011;61560;33.718;73.040;2023-05-01T10:29:02;11.93;;;7.60;;
73331;SDS011;61560;33.718;73.040;2023-05-01T10:31:29;13.48;;;6.53;;
73331;SDS011;61560;33.718;73.040;2023-05-01T10:33:58;13.40;;;8.07;;
73331;SDS011;61560;33.718;73.040;2023-05-01T10:36:31;11.40;;;6.22;;
73331;SDS011;61560;33.718;73.040;2023-05-01T10:39:02;15.43;;;7.10;;
73331;SDS011;61560;33.718;73.040;2023-05-01T10:44:36;11.07;;;5.85;;
73331;SDS011;61560;33.718;73.040;2023-05-01T10:50:05;10.93;;;6.15;;
73331;SDS011;61560;33.718;73.040;2023-05-01T10:55:38;12.77;;;6.22;;
73331;SDS011;61560;33.718;73.040;2023-05-01T10:58:11;13.02;;;5.78;;
73331;SDS011;61560;33.718;73.040;2023-05-01T11:00:38;9.68;;;6.05;;
73331;SDS011;61560;33.718;73.040;2023-05-01T11:06:09;11.02;;;5.88;;
73331;SDS011;61560;33.718;73.040;2023-05-01T11:08:36;9.10;;;5.50;;
73331;SDS011;61560;33.718;73.040;2023-05-01T11:13:54;9.27;;;5.88;;
73331;SDS011;61560;33.718;73.040;2023-05-01T11:19:02;14.80;;;6.00;;
73331;SDS011;61560;33.718;73.040;2023-05-01T11:21:29;9.98;;;6.32;;
73331;SDS011;61560;33.718;73.040;2023-05-01T11:24:00;12.00;;;6.00;;
73331;SDS011;61560;33.718;73.040;2023-05-01T11:26:27;13.18;;;7.22;;
73331;SDS011;61560;33.718;73.040;2023-05-01T11:28:56;12.15;;;6.88;;
73331;SDS011;61560;33.718;73.040;2023-05-01T11:31:24;10.88;;;6.57;;
73331;SDS011;61560;33.718;73.040;2023-05-01T11:33:56;12.95;;;6.60;;
73331;SDS011;61560;33.718;73.040;2023-05-01T11:36:27;11.35;;;6.53;;
73331;SDS011;61560;33.718;73.040;2023-05-01T11:38:55;9.93;;;6.32;;
73331;SDS011;61560;33.718;73.040;2023-05-01T11:41:25;10.57;;;6.93;;
73331;SDS011;61560;33.718;73.040;2023-05-01T11:43:52;16.88;;;7.20;;
73331;SDS011;61560;33.718;73.040;2023-05-01T11:48:55;16.48;;;6.90;;
73331;SDS011;61560;33.718;73.040;2023-05-01T11:51:23;11.00;;;6.68;;
73331;SDS011;61560;33.718;73.040;2023-05-01T11:54:07;11.30;;;7.10;;
73331;SDS011;61560;33.718;73.040;2023-05-01T11:56:36;11.98;;;6.65;;
73331;SDS011;61560;33.718;73.040;2023-05-01T11:59:23;11.45;;;6.10;;
73331;SDS011;61560;33.718;73.040;2023-05-01T12:01:50;13.88;;;7.40;;
73331;SDS011;61560;33.718;73.040;2023-05-01T12:04:24;15.85;;;7.63;;
73331;SDS011;61560;33.718;73.040;2023-05-01T12:06:55;13.27;;;7.07;;
73331;SDS011;61560;33.718;73.040;2023-05-01T12:09:23;16.13;;;7.20;;
73331;SDS011;61560;33.718;73.040;2023-05-01T12:11:51;15.35;;;7.95;;
73331;SDS011;61560;33.718;73.040;2023-05-01T12:14:19;10.68;;;6.85;;
73331;SDS011;61560;33.718;73.040;2023-05-01T12:16:49;16.05;;;7.35;;
73331;SDS011;61560;33.718;73.040;2023-05-01T12:19:16;12.25;;;6.35;;
73331;SDS011;61560;33.718;73.040;2023-05-01T12:21:43;13.50;;;7.00;;
73331;SDS011;61560;33.718;73.040;2023-05-01T12:24:13;19.98;;;7.68;;
73331;SDS011;61560;33.718;73.040;2023-05-01T12:26:44;15.93;;;6.80;;
73331;SDS011;61560;33.718;73.040;2023-05-01T12:29:11;13.27;;;6.22;;
73331;SDS011;61560;33.718;73.040;2023-05-01T12:31:46;13.25;;;6.10;;
73331;SDS011;61560;33.718;73.040;2023-05-01T12:34:13;12.35;;;5.97;;
73331;SDS011;61560;33.718;73.040;2023-05-01T12:36:40;14.77;;;6.13;;
73331;SDS011;61560;33.718;73.040;2023-05-01T12:39:07;12.60;;;5.95;;
73331;SDS011;61560;33.718;73.040;2023-05-01T12:41:43;13.32;;;6.50;;
73331;SDS011;61560;33.718;73.040;2023-05-01T12:46:54;9.95;;;5.95;;
73331;SDS011;61560;33.718;73.040;2023-05-01T12:49:35;11.13;;;6.40;;
73331;SDS011;61560;33.718;73.040;2023-05-01T12:52:06;12.68;;;6.68;;
73331;SDS011;61560;33.718;73.040;2023-05-01T12:54:37;12.00;;;6.97;;
73331;SDS011;61560;33.718;73.040;2023-05-01T12:59:42;10.75;;;7.13;;
73331;SDS011;61560;33.718;73.040;2023-05-01T13:02:14;11.65;;;7.20;;
73331;SDS011;61560;33.718;73.040;2023-05-01T13:04:43;13.50;;;7.15;;
73331;SDS011;61560;33.718;73.040;2023-05-01T13:07:16;12.52;;;7.70;;
73331;SDS011;61560;33.718;73.040;2023-05-01T13:09:57;16.42;;;7.57;;
73331;SDS011;61560;33.718;73.040;2023-05-01T13:12:25;18.20;;;8.57;;
73331;SDS011;61560;33.718;73.040;2023-05-01T13:14:52;12.63;;;7.05;;
73331;SDS011;61560;33.718;73.040;2023-05-01T13:17:30;17.20;;;7.15;;
73331;SDS011;61560;33.718;73.040;2023-05-01T13:20:06;11.30;;;6.60;;
73331;SDS011;61560;33.718;73.040;2023-05-01T13:22:40;13.65;;;7.03;;
73331;SDS011;61560;33.718;73.040;2023-05-01T13:25:16;11.75;;;6.60;;
73331;SDS011;61560;33.718;73.040;2023-05-01T13:27:49;9.32;;;6.45;;
73331;SDS011;61560;33.718;73.040;2023-05-01T13:30:19;15.15;;;7.88;;
73331;SDS011;61560;33.718;73.040;2023-05-01T13:32:56;11.80;;;7.05;;
73331;SDS011;61560;33.718;73.040;2023-05-01T13:35:23;11.73;;;6.15;;
73331;SDS011;61560;33.718;73.040;2023-05-01T13:37:51;10.20;;;6.10;;
73331;SDS011;61560;33.718;73.040;2023-05-01T13:40:19;11.13;;;6.05;;
73331;SDS011;61560;33.718;73.040;2023-05-01T13:42:51;12.75;;;6.60;;
73331;SDS011;61560;33.718;73.040;2023-05-01T13:45:19;16.13;;;5.97;;
73331;SDS011;61560;33.718;73.040;2023-05-01T13:47:46;10.95;;;6.30;;
73331;SDS011;61560;33.718;73.040;2023-05-01T13:50:16;13.05;;;6.55;;
73331;SDS011;61560;33.718;73.040;2023-05-01T13:52:44;12.38;;;7.65;;
73331;SDS011;61560;33.718;73.040;2023-05-01T13:55:12;20.02;;;8.30;;
73331;SDS011;61560;33.718;73.040;2023-05-01T13:57:39;14.63;;;7.35;;
73331;SDS011;61560;33.718;73.040;2023-05-01T14:00:08;11.32;;;6.78;;
73331;SDS011;61560;33.718;73.040;2023-05-01T14:02:42;15.20;;;7.13;;
73331;SDS011;61560;33.718;73.040;2023-05-01T14:05:19;12.57;;;7.35;;
73331;SDS011;61560;33.718;73.040;2023-05-01T14:07:53;16.95;;;7.22;;
73331;SDS011;61560;33.718;73.040;2023-05-01T14:10:21;15.00;;;7.30;;
73331;SDS011;61560;33.718;73.040;2023-05-01T14:12:50;16.77;;;7.78;;
73331;SDS011;61560;33.718;73.040;2023-05-01T14:15:23;12.73;;;7.40;;
73331;SDS011;61560;33.718;73.040;2023-05-01T14:17:50;15.85;;;7.65;;
73331;SDS011;61560;33.718;73.040;2023-05-01T14:20:19;12.70;;;6.70;;
73331;SDS011;61560;33.718;73.040;2023-05-01T14:22:50;11.93;;;6.43;;
73331;SDS011;61560;33.718;73.040;2023-05-01T14:25:24;11.32;;;5.82;;
73331;SDS011;61560;33.718;73.040;2023-05-01T14:27:57;10.35;;;5.47;;
73331;SDS011;61560;33.718;73.040;2023-05-01T14:30:28;8.05;;;5.20;;
73331;SDS011;61560;33.718;73.040;2023-05-01T14:33:07;9.32;;;5.05;;
73331;SDS011;61560;33.718;73.040;2023-05-01T14:35:48;9.52;;;4.53;;
73331;SDS011;61560;33.718;73.040;2023-05-01T14:38:17;10.77;;;4.93;;
73331;SDS011;61560;33.718;73.040;2023-05-01T14:40:45;8.43;;;5.20;;
73331;SDS011;61560;33.718;73.040;2023-05-01T14:43:17;10.48;;;5.43;;
73331;SDS011;61560;33.718;73.040;2023-05-01T14:45:46;11.13;;;5.40;;
73331;SDS011;61560;33.718;73.040;2023-05-01T14:50:49;11.43;;;5.53;;
73331;SDS011;61560;33.718;73.040;2023-05-01T14:53:15;9.93;;;5.78;;
73331;SDS011;61560;33.718;73.040;2023-05-01T14:55:44;9.65;;;5.35;;
73331;SDS011;61560;33.718;73.040;2023-05-01T14:58:15;12.00;;;5.30;;
73331;SDS011;61560;33.718;73.040;2023-05-01T15:00:43;11.02;;;5.35;;
73331;SDS011;61560;33.718;73.040;2023-05-01T15:03:09;11.52;;;5.60;;
73331;SDS011;61560;33.718;73.040;2023-05-01T15:05:36;9.25;;;6.10;;
73331;SDS011;61560;33.718;73.040;2023-05-01T15:08:05;9.85;;;5.40;;
73331;SDS011;61560;33.718;73.040;2023-05-01T15:10:32;13.75;;;5.57;;
73331;SDS011;61560;33.718;73.040;2023-05-01T15:12:58;14.73;;;6.80;;
73331;SDS011;61560;33.718;73.040;2023-05-01T15:15:25;11.43;;;6.30;;